createdAt,value
2017-11-22T00:01:17.374Z,56.25
2017-11-22T00:01:56.366Z,55.96
2017-11-22T00:02:56.352Z,56.15
2017-11-22T00:03:56.348Z,56.25
2017-11-22T00:04:56.347Z,56.15
2017-11-22T00:05:56.336Z,56.15
2017-11-22T00:07:17.341Z,55.96
2017-11-22T00:07:56.328Z,56.05
2017-11-22T00:08:56.317Z,56.05
2017-11-22T00:09:56.313Z,56.05
2017-11-22T00:10:56.306Z,55.77
2017-11-22T00:11:56.299Z,56.15
2017-11-22T00:13:17.297Z,56.15
2017-11-22T00:13:56.285Z,55.96
2017-11-22T00:14:56.281Z,56.35
2017-11-22T00:15:56.275Z,56.15
2017-11-22T00:16:56.269Z,56.44
2017-11-22T00:17:56.261Z,56.15
2017-11-22T00:19:17.262Z,56.35
2017-11-22T00:19:56.247Z,56.44
2017-11-22T00:20:56.255Z,56.63
2017-11-22T00:21:56.237Z,56.44
2017-11-22T00:22:56.230Z,56.25
2017-11-22T00:23:56.223Z,56.35
2017-11-22T00:25:17.223Z,56.25
2017-11-22T00:25:56.212Z,56.44
2017-11-22T00:26:56.213Z,56.44
2017-11-22T00:27:56.199Z,56.73
2017-11-22T00:28:56.197Z,56.35
2017-11-22T00:29:56.189Z,56.54
2017-11-22T00:31:17.187Z,56.54
2017-11-22T00:31:56.177Z,56.35
2017-11-22T00:32:56.168Z,56.54
2017-11-22T00:33:56.264Z,56.25
2017-11-22T00:34:56.156Z,57.02
2017-11-22T00:35:56.155Z,57.02
2017-11-22T00:37:17.150Z,56.82
2017-11-22T00:37:56.136Z,56.82
2017-11-22T00:38:56.132Z,56.82
2017-11-22T00:39:56.135Z,56.63
2017-11-22T00:40:56.119Z,56.54
2017-11-22T00:41:56.115Z,56.82
2017-11-22T00:43:17.122Z,56.73
2017-11-22T00:43:56.102Z,56.63
2017-11-22T00:44:56.095Z,57.12
2017-11-22T00:45:56.099Z,57.21
2017-11-22T00:46:56.083Z,57.21
2017-11-22T00:47:56.075Z,56.92
2017-11-22T00:49:17.077Z,56.92
2017-11-22T00:49:56.066Z,57.02
2017-11-22T00:50:56.063Z,56.92
2017-11-22T00:51:56.051Z,57.02
2017-11-22T00:52:56.042Z,57.02
2017-11-22T00:53:56.039Z,56.82
2017-11-22T00:55:17.066Z,56.73
2017-11-22T00:55:56.071Z,56.82
2017-11-22T00:56:56.024Z,56.92
2017-11-22T00:57:56.013Z,56.92
2017-11-22T00:58:56.009Z,56.73
2017-11-22T00:59:56.006Z,56.54
2017-11-22T01:01:17.003Z,56.73
2017-11-22T01:01:55.989Z,56.73
2017-11-22T01:02:55.989Z,56.82
2017-11-22T01:03:55.977Z,56.92
2017-11-22T01:04:56.646Z,56.92
2017-11-22T01:05:55.966Z,57.12
2017-11-22T01:07:16.982Z,57.31
2017-11-22T01:07:55.957Z,57.21
2017-11-22T01:08:55.949Z,57.02
2017-11-22T01:09:55.941Z,57.02
2017-11-22T01:10:55.936Z,57.69
2017-11-22T01:11:55.932Z,57.69
2017-11-22T01:13:16.928Z,57.50
2017-11-22T01:13:55.918Z,57.50
2017-11-22T01:14:55.914Z,57.50
2017-11-22T01:15:55.909Z,57.50
2017-11-22T01:16:55.898Z,57.60
2017-11-22T01:17:55.894Z,57.50
2017-11-22T01:19:16.894Z,57.21
2017-11-22T01:19:55.907Z,57.21
2017-11-22T01:20:59.550Z,57.31
2017-11-22T01:21:55.869Z,57.21
2017-11-22T01:23:48.757Z,57.21
2017-11-22T01:24:48.749Z,57.21
2017-11-22T01:26:41.621Z,57.02
2017-11-22T01:27:41.604Z,57.21
2017-11-22T01:29:34.491Z,57.31
2017-11-22T01:30:34.472Z,57.40
2017-11-22T01:32:27.353Z,57.21
2017-11-22T01:33:27.338Z,57.21
2017-11-22T01:35:20.239Z,57.12
2017-11-22T01:36:20.206Z,57.40
2017-11-22T01:38:14.085Z,57.40
2017-11-22T01:39:14.069Z,57.50
2017-11-22T01:41:06.968Z,57.50
2017-11-22T01:42:06.940Z,57.69
2017-11-22T01:43:59.843Z,57.40
2017-11-22T01:44:59.813Z,57.69
2017-11-22T01:46:52.706Z,57.69
2017-11-22T01:47:52.687Z,57.69
2017-11-22T01:49:45.573Z,57.69
2017-11-22T01:50:45.549Z,57.79
2017-11-22T01:52:38.427Z,57.40
2017-11-22T01:53:38.414Z,57.89
2017-11-22T01:55:31.314Z,57.60
2017-11-22T01:56:31.289Z,57.69
2017-11-22T01:58:24.171Z,57.50
2017-11-22T01:59:24.158Z,57.69
2017-11-22T02:01:17.052Z,57.79
2017-11-22T02:02:17.030Z,57.60
2017-11-22T02:04:09.916Z,57.60
2017-11-22T02:05:09.893Z,57.50
2017-11-22T02:07:02.806Z,57.50
2017-11-22T02:08:02.801Z,57.98
2017-11-22T02:09:56.675Z,57.98
2017-11-22T02:10:56.658Z,57.79
2017-11-22T02:11:56.658Z,57.50
2017-11-22T02:12:56.649Z,57.79
2017-11-22T02:13:56.639Z,57.79
2017-11-22T02:14:56.635Z,57.69
2017-11-22T02:15:56.629Z,57.89
2017-11-22T02:16:56.621Z,57.79
2017-11-22T02:17:56.618Z,57.79
2017-11-22T02:18:56.608Z,57.79
2017-11-22T02:19:56.602Z,57.50
2017-11-22T02:20:56.602Z,57.40
2017-11-22T02:21:56.590Z,57.79
2017-11-22T02:22:56.584Z,57.89
2017-11-22T02:23:56.597Z,57.50
2017-11-22T02:24:56.568Z,57.79
2017-11-22T02:25:56.566Z,57.79
2017-11-22T02:26:56.561Z,57.79
2017-11-22T02:27:56.562Z,57.89
2017-11-22T02:28:56.548Z,57.79
2017-11-22T02:29:56.540Z,57.69
2017-11-22T02:30:56.547Z,57.53
2017-11-22T02:31:56.530Z,57.40
2017-11-22T02:32:56.522Z,57.89
2017-11-22T02:33:56.517Z,57.89
2017-11-22T02:34:56.520Z,57.79
2017-11-22T02:35:56.503Z,57.89
2017-11-22T02:36:56.521Z,57.79
2017-11-22T02:37:56.497Z,57.79
2017-11-22T02:38:56.488Z,57.79
2017-11-22T02:39:56.481Z,57.50
2017-11-22T02:40:56.472Z,57.79
2017-11-22T02:41:56.469Z,57.60
2017-11-22T02:42:56.466Z,57.89
2017-11-22T02:43:56.459Z,57.79
2017-11-22T02:44:56.450Z,57.89
2017-11-22T02:45:56.446Z,57.79
2017-11-22T02:46:56.440Z,57.79
2017-11-22T02:47:56.432Z,57.79
2017-11-22T02:48:56.426Z,57.60
2017-11-22T02:49:56.421Z,57.50
2017-11-22T02:50:56.414Z,57.60
2017-11-22T02:51:56.410Z,57.79
2017-11-22T02:52:56.402Z,57.79
2017-11-22T02:53:56.393Z,57.79
2017-11-22T02:54:56.389Z,58.08
2017-11-22T02:55:56.383Z,57.89
2017-11-22T02:56:56.374Z,57.98
2017-11-22T02:57:56.371Z,57.89
2017-11-22T02:58:56.367Z,57.79
2017-11-22T02:59:56.359Z,57.79
2017-11-22T03:00:56.355Z,57.79
2017-11-22T03:01:56.350Z,57.79
2017-11-22T03:02:56.351Z,57.79
2017-11-22T03:03:56.335Z,57.98
2017-11-22T03:04:56.337Z,57.60
2017-11-22T03:05:56.325Z,57.69
2017-11-22T03:06:56.317Z,57.79
2017-11-22T03:07:56.308Z,57.69
2017-11-22T03:08:56.306Z,57.69
2017-11-22T03:09:56.306Z,57.79
2017-11-22T03:10:56.297Z,57.60
2017-11-22T03:11:56.289Z,57.69
2017-11-22T03:12:56.294Z,57.60
2017-11-22T03:13:56.275Z,57.69
2017-11-22T03:14:56.269Z,57.60
2017-11-22T03:15:56.265Z,57.60
2017-11-22T03:16:56.288Z,57.60
2017-11-22T03:17:56.249Z,57.69
2017-11-22T03:18:56.245Z,57.69
2017-11-22T03:19:56.243Z,57.89
2017-11-22T03:20:56.239Z,58.08
2017-11-22T03:21:56.228Z,57.79
2017-11-22T03:22:56.960Z,57.69
2017-11-22T03:23:56.215Z,57.69
2017-11-22T03:24:56.209Z,57.69
2017-11-22T03:25:56.201Z,57.69
2017-11-22T03:26:56.197Z,57.69
2017-11-22T03:27:56.193Z,57.50
2017-11-22T03:28:56.194Z,57.69
2017-11-22T03:29:56.179Z,57.98
2017-11-22T03:30:56.196Z,57.98
2017-11-22T03:31:56.169Z,57.89
2017-11-22T03:32:56.160Z,58.17
2017-11-22T03:33:56.153Z,57.60
2017-11-22T03:34:56.151Z,57.50
2017-11-22T03:35:56.143Z,57.60
2017-11-22T03:36:56.138Z,58.08
2017-11-22T03:37:56.132Z,57.60
2017-11-22T03:38:56.287Z,57.98
2017-11-22T03:39:56.118Z,57.98
2017-11-22T03:40:56.114Z,58.17
2017-11-22T03:41:56.104Z,58.17
2017-11-22T03:42:56.100Z,58.08
2017-11-22T03:43:56.095Z,58.17
2017-11-22T03:44:56.087Z,58.27
2017-11-22T03:45:56.081Z,58.27
2017-11-22T03:46:56.080Z,58.17
2017-11-22T03:47:56.073Z,58.17
2017-11-22T03:48:56.064Z,57.98
2017-11-22T03:49:56.056Z,58.17
2017-11-22T03:50:56.066Z,57.89
2017-11-22T03:51:56.049Z,58.08
2017-11-22T03:52:56.037Z,57.98
2017-11-22T03:53:56.035Z,58.17
2017-11-22T03:54:56.027Z,57.98
2017-11-22T03:55:56.022Z,58.08
2017-11-22T03:56:56.017Z,58.27
2017-11-22T03:57:56.007Z,58.08
2017-11-22T03:58:56.002Z,58.17
2017-11-22T03:59:55.997Z,58.08
2017-11-22T04:00:55.993Z,57.98
2017-11-22T04:01:56.010Z,57.89
2017-11-22T04:02:55.983Z,58.27
2017-11-22T04:03:55.972Z,58.17
2017-11-22T04:04:55.965Z,57.60
2017-11-22T04:05:55.970Z,57.79
2017-11-22T04:06:55.966Z,57.89
2017-11-22T04:07:55.955Z,57.98
2017-11-22T04:08:55.942Z,57.62
2017-11-22T04:09:55.939Z,57.62
2017-11-22T04:10:55.932Z,57.62
2017-11-22T04:11:55.925Z,58.01
2017-11-22T04:12:55.918Z,57.82
2017-11-22T04:13:55.917Z,57.82
2017-11-22T04:14:55.905Z,57.62
2017-11-22T04:15:55.900Z,57.72
2017-11-22T04:16:55.897Z,57.53
2017-11-22T04:17:55.891Z,57.34
2017-11-22T04:18:55.886Z,57.62
2017-11-22T04:19:55.876Z,57.24
2017-11-22T04:20:55.872Z,57.14
2017-11-22T04:21:55.865Z,57.14
2017-11-22T04:22:55.863Z,57.24
2017-11-22T04:23:55.863Z,57.34
2017-11-22T04:24:55.848Z,57.24
2017-11-22T04:25:55.842Z,57.14
2017-11-22T04:26:55.836Z,57.43
2017-11-22T04:27:55.829Z,57.27
2017-11-22T04:28:55.880Z,57.17
2017-11-22T04:29:55.833Z,57.24
2017-11-22T04:30:55.816Z,57.62
2017-11-22T04:31:55.810Z,57.56
2017-11-22T04:32:55.846Z,57.53
2017-11-22T04:33:55.794Z,57.56
2017-11-22T04:34:55.811Z,57.56
2017-11-22T04:35:55.777Z,57.65
2017-11-22T04:36:55.809Z,57.85
2017-11-22T04:37:55.770Z,57.75
2017-11-22T04:38:55.775Z,57.56
2017-11-22T04:39:55.773Z,57.46
2017-11-22T04:40:55.768Z,57.37
2017-11-22T04:41:55.746Z,57.17
2017-11-22T04:42:55.741Z,57.37
2017-11-22T04:43:55.737Z,57.56
2017-11-22T04:44:55.732Z,57.56
2017-11-22T04:45:55.723Z,57.65
2017-11-22T04:46:55.717Z,57.85
2017-11-22T04:47:55.712Z,57.75
2017-11-22T04:48:55.706Z,57.46
2017-11-22T04:49:55.702Z,57.75
2017-11-22T04:50:55.702Z,57.65
2017-11-22T04:51:55.688Z,57.85
2017-11-22T04:52:55.683Z,57.94
2017-11-22T04:53:55.677Z,58.04
2017-11-22T04:54:55.671Z,57.85
2017-11-22T04:55:55.665Z,57.62
2017-11-22T04:56:55.659Z,57.62
2017-11-22T04:57:55.653Z,58.01
2017-11-22T04:58:55.643Z,57.53
2017-11-22T04:59:55.649Z,57.72
2017-11-22T05:00:55.635Z,57.62
2017-11-22T05:01:55.627Z,57.34
2017-11-22T05:02:55.622Z,57.53
2017-11-22T05:03:55.609Z,56.66
2017-11-22T05:04:55.604Z,57.14
2017-11-22T05:05:55.599Z,56.66
2017-11-22T05:06:55.592Z,57.05
2017-11-22T05:07:55.585Z,56.27
2017-11-22T05:08:55.575Z,56.18
2017-11-22T05:09:55.579Z,56.11
2017-11-22T05:10:55.565Z,56.30
2017-11-22T05:11:55.574Z,56.30
2017-11-22T05:12:55.554Z,55.92
2017-11-22T05:13:55.545Z,56.01
2017-11-22T05:14:55.542Z,55.63
2017-11-22T05:15:55.532Z,55.63
2017-11-22T05:16:55.517Z,55.63
2017-11-22T05:17:55.513Z,55.34
2017-11-22T05:18:55.509Z,55.54
2017-11-22T05:19:55.509Z,55.44
2017-11-22T05:20:55.495Z,55.34
2017-11-22T05:21:55.490Z,55.63
2017-11-22T05:22:55.480Z,55.54
2017-11-22T05:23:55.476Z,55.63
2017-11-22T05:24:55.470Z,55.73
2017-11-22T05:25:55.459Z,55.63
2017-11-22T05:26:55.453Z,55.24
2017-11-22T05:27:55.448Z,55.15
2017-11-22T05:28:55.438Z,55.24
2017-11-22T05:29:55.434Z,55.34
2017-11-22T05:30:55.420Z,55.34
2017-11-22T05:31:55.415Z,55.34
2017-11-22T05:32:55.429Z,55.24
2017-11-22T05:33:55.406Z,55.24
2017-11-22T05:34:55.405Z,55.44
2017-11-22T05:35:55.392Z,55.34
2017-11-22T05:36:55.383Z,55.54
2017-11-22T05:37:55.373Z,55.34
2017-11-22T05:38:55.368Z,55.34
2017-11-22T05:39:55.360Z,55.18
2017-11-22T05:40:55.359Z,55.27
2017-11-22T05:41:55.349Z,55.24
2017-11-22T05:42:55.345Z,55.34
2017-11-22T05:43:55.326Z,55.15
2017-11-22T05:44:55.319Z,55.15
2017-11-22T05:45:55.314Z,55.15
2017-11-22T05:46:55.308Z,55.15
2017-11-22T05:47:55.309Z,55.36
2017-11-22T05:48:55.319Z,55.15
2017-11-22T05:49:55.292Z,55.34
2017-11-22T05:50:55.281Z,55.24
2017-11-22T05:51:55.273Z,55.15
2017-11-22T05:52:55.265Z,55.15
2017-11-22T05:53:55.261Z,55.54
2017-11-22T05:54:55.252Z,55.34
2017-11-22T05:55:55.248Z,55.24
2017-11-22T05:56:55.240Z,54.96
2017-11-22T05:57:55.241Z,55.54
2017-11-22T05:58:55.232Z,55.44
2017-11-22T05:59:55.216Z,55.54
2017-11-22T06:00:55.212Z,55.63
2017-11-22T06:01:55.203Z,55.24
2017-11-22T06:02:55.199Z,55.34
2017-11-22T06:03:55.188Z,55.24
2017-11-22T06:04:55.181Z,55.44
2017-11-22T06:05:55.177Z,55.24
2017-11-22T06:06:55.170Z,55.24
2017-11-22T06:07:55.157Z,55.24
2017-11-22T06:08:55.164Z,55.15
2017-11-22T06:09:55.151Z,55.63
2017-11-22T06:10:55.138Z,55.44
2017-11-22T06:11:55.130Z,55.54
2017-11-22T06:12:55.129Z,55.05
2017-11-22T06:13:55.115Z,55.54
2017-11-22T06:14:55.110Z,55.44
2017-11-22T06:15:55.102Z,55.15
2017-11-22T06:16:55.094Z,55.05
2017-11-22T06:17:55.092Z,55.15
2017-11-22T06:18:55.082Z,55.15
2017-11-22T06:19:55.068Z,55.15
2017-11-22T06:20:55.075Z,55.15
2017-11-22T06:21:55.057Z,55.34
2017-11-22T06:22:55.055Z,55.24
2017-11-22T06:23:55.052Z,55.15
2017-11-22T06:24:55.036Z,55.15
2017-11-22T06:25:55.029Z,54.96
2017-11-22T06:26:55.026Z,54.96
2017-11-22T06:27:55.016Z,54.96
2017-11-22T06:28:55.010Z,55.05
2017-11-22T06:29:55.010Z,54.86
2017-11-22T06:30:54.995Z,55.24
2017-11-22T06:31:54.987Z,54.57
2017-11-22T06:32:54.980Z,54.76
2017-11-22T06:33:54.970Z,54.86
2017-11-22T06:34:54.964Z,54.66
2017-11-22T06:35:54.956Z,54.86
2017-11-22T06:36:54.957Z,54.86
2017-11-22T06:37:54.944Z,54.76
2017-11-22T06:38:54.936Z,54.57
2017-11-22T06:39:54.927Z,54.86
2017-11-22T06:40:54.926Z,54.86
2017-11-22T06:41:54.914Z,54.76
2017-11-22T06:42:54.907Z,54.76
2017-11-22T06:43:54.900Z,54.96
2017-11-22T06:44:54.900Z,54.96
2017-11-22T06:45:54.886Z,54.76
2017-11-22T06:46:54.880Z,54.86
2017-11-22T06:47:54.867Z,54.76
2017-11-22T06:48:54.879Z,54.76
2017-11-22T06:49:54.864Z,54.66
2017-11-22T06:50:54.887Z,54.66
2017-11-22T06:51:54.841Z,54.96
2017-11-22T06:52:54.836Z,54.86
2017-11-22T06:53:54.829Z,54.96
2017-11-22T06:54:54.821Z,54.86
2017-11-22T06:55:54.814Z,54.86
2017-11-22T06:56:54.816Z,54.96
2017-11-22T06:57:54.802Z,54.66
2017-11-22T06:58:54.800Z,54.86
2017-11-22T07:00:47.679Z,54.86
2017-11-22T07:01:47.657Z,54.86
2017-11-22T07:03:40.558Z,54.86
2017-11-22T07:04:40.531Z,54.96
2017-11-22T07:06:33.405Z,54.66
2017-11-22T07:07:33.392Z,54.76
2017-11-22T07:09:26.278Z,54.96
2017-11-22T07:10:26.256Z,54.96
2017-11-22T07:12:19.186Z,54.76
2017-11-22T07:13:19.174Z,54.76
2017-11-22T07:15:12.058Z,54.66
2017-11-22T07:16:12.035Z,54.86
2017-11-22T07:18:04.912Z,54.76
2017-11-22T07:19:04.904Z,54.96
2017-11-22T07:20:58.785Z,54.76
2017-11-22T07:21:58.758Z,54.96
2017-11-22T07:23:51.645Z,54.76
2017-11-22T07:24:51.620Z,54.96
2017-11-22T07:26:44.501Z,54.76
2017-11-22T07:27:44.488Z,54.47
2017-11-22T07:29:37.375Z,54.18
2017-11-22T07:30:37.348Z,54.57
2017-11-22T07:32:30.241Z,54.18
2017-11-22T07:33:30.226Z,54.09
2017-11-22T07:35:23.118Z,54.40
2017-11-22T07:36:23.099Z,54.21
2017-11-22T07:37:23.083Z,54.02
2017-11-22T07:38:23.076Z,53.92
2017-11-22T07:39:23.070Z,53.73
2017-11-22T07:40:23.062Z,53.83
2017-11-22T07:41:23.054Z,53.73
2017-11-22T07:42:23.050Z,53.63
2017-11-22T07:43:23.038Z,53.63
2017-11-22T07:44:23.039Z,53.63
2017-11-22T07:45:23.026Z,53.53
2017-11-22T07:46:23.017Z,53.83
2017-11-22T07:47:23.017Z,54.02
2017-11-22T07:48:23.005Z,53.63
2017-11-22T07:49:23.003Z,54.11
2017-11-22T07:50:22.990Z,54.11
2017-11-22T07:51:22.986Z,54.02
2017-11-22T07:52:22.991Z,53.83
2017-11-22T07:53:22.971Z,54.21
2017-11-22T07:54:22.963Z,53.63
2017-11-22T07:55:22.956Z,54.02
2017-11-22T07:56:22.947Z,53.63
2017-11-22T07:57:22.943Z,53.63
2017-11-22T07:58:22.943Z,53.53
2017-11-22T07:59:22.928Z,53.47
2017-11-22T08:00:22.926Z,53.95
2017-11-22T08:01:22.912Z,53.27
2017-11-22T08:02:22.907Z,52.98
2017-11-22T08:03:22.900Z,53.17
2017-11-22T08:04:22.894Z,52.50
2017-11-22T08:05:22.892Z,52.62
2017-11-22T08:06:22.880Z,52.43
2017-11-22T08:07:22.872Z,52.33
2017-11-22T08:08:22.868Z,52.33
2017-11-22T08:09:22.859Z,52.04
2017-11-22T08:10:22.861Z,52.33
2017-11-22T08:11:22.846Z,51.78
2017-11-22T08:12:22.842Z,51.59
2017-11-22T08:13:22.831Z,51.68
2017-11-22T08:14:22.823Z,51.68
2017-11-22T08:15:22.815Z,51.68
2017-11-22T08:16:22.810Z,51.68
2017-11-22T08:17:22.808Z,51.97
2017-11-22T08:18:22.798Z,51.49
2017-11-22T08:19:22.794Z,51.39
2017-11-22T08:20:22.790Z,51.87
2017-11-22T08:21:22.778Z,51.78
2017-11-22T08:22:22.771Z,51.39
2017-11-22T08:23:22.765Z,51.85
2017-11-22T08:24:22.759Z,52.23
2017-11-22T08:25:22.748Z,52.14
2017-11-22T08:26:22.749Z,52.43
2017-11-22T08:27:22.744Z,51.49
2017-11-22T08:28:22.734Z,51.39
2017-11-22T08:29:22.724Z,51.59
2017-11-22T08:30:22.724Z,51.03
2017-11-22T08:31:22.713Z,50.84
2017-11-22T08:32:22.704Z,49.90
2017-11-22T08:33:22.696Z,49.34
2017-11-22T08:34:22.706Z,48.59
2017-11-22T08:35:22.688Z,48.32
2017-11-22T08:36:22.682Z,47.86
2017-11-22T08:37:22.673Z,47.28
2017-11-22T08:38:22.664Z,46.92
2017-11-22T08:39:22.668Z,46.62
2017-11-22T08:40:22.653Z,45.87
2017-11-22T08:41:22.648Z,46.19
2017-11-22T08:42:22.640Z,46.09
2017-11-22T08:43:22.637Z,45.43
2017-11-22T08:44:22.629Z,45.24
2017-11-22T08:45:22.626Z,45.34
2017-11-22T08:46:22.617Z,44.58
2017-11-22T08:47:22.614Z,45.07
2017-11-22T08:48:22.610Z,44.68
2017-11-22T08:49:22.605Z,44.97
2017-11-22T08:50:22.601Z,44.60
2017-11-22T08:51:22.602Z,44.02
2017-11-22T08:52:22.603Z,44.12
2017-11-22T08:53:22.587Z,44.12
2017-11-22T08:54:22.587Z,43.95
2017-11-22T08:55:22.574Z,44.14
2017-11-22T08:56:22.578Z,43.95
2017-11-22T08:57:22.568Z,43.95
2017-11-22T08:58:22.566Z,43.95
2017-11-22T08:59:22.564Z,44.24
2017-11-22T09:00:22.565Z,44.33
2017-11-22T09:01:22.559Z,43.75
2017-11-22T09:02:22.554Z,43.95
2017-11-22T09:03:22.560Z,44.14
2017-11-22T09:04:22.556Z,43.65
2017-11-22T09:05:22.561Z,43.48
2017-11-22T09:06:22.547Z,43.48
2017-11-22T09:07:22.547Z,43.58
2017-11-22T09:08:22.544Z,43.29
2017-11-22T09:09:22.541Z,43.48
2017-11-22T09:10:22.544Z,43.29
2017-11-22T09:11:22.546Z,43.58
2017-11-22T09:12:22.543Z,43.75
2017-11-22T09:13:22.536Z,44.33
2017-11-22T09:14:22.532Z,43.92
2017-11-22T09:15:22.531Z,44.41
2017-11-22T09:16:23.351Z,44.12
2017-11-22T09:17:22.530Z,44.48
2017-11-22T09:18:22.526Z,44.29
2017-11-22T09:19:22.524Z,44.78
2017-11-22T09:20:22.525Z,45.34
2017-11-22T09:21:22.521Z,45.14
2017-11-22T09:22:22.521Z,45.34
2017-11-22T09:23:22.518Z,45.24
2017-11-22T09:24:22.516Z,44.78
2017-11-22T09:25:22.515Z,44.68
2017-11-22T09:26:22.512Z,44.38
2017-11-22T09:27:22.513Z,44.38
2017-11-22T09:28:22.513Z,44.29
2017-11-22T09:29:22.514Z,43.90
2017-11-22T09:30:22.515Z,44.00
2017-11-22T09:31:22.517Z,44.09
2017-11-22T09:32:22.511Z,44.00
2017-11-22T09:33:22.512Z,44.00
2017-11-22T09:34:22.510Z,44.09
2017-11-22T09:35:22.509Z,44.00
2017-11-22T09:36:22.508Z,44.00
2017-11-22T09:37:22.506Z,44.09
2017-11-22T09:38:22.508Z,44.29
2017-11-22T09:39:22.512Z,44.00
2017-11-22T09:40:22.507Z,44.46
2017-11-22T09:41:22.508Z,44.37
2017-11-22T09:42:22.510Z,44.65
2017-11-22T09:43:22.514Z,44.46
2017-11-22T09:44:22.508Z,44.95
2017-11-22T09:45:22.509Z,44.65
2017-11-22T09:46:22.511Z,44.37
2017-11-22T09:47:22.513Z,44.65
2017-11-22T09:48:22.511Z,44.65
2017-11-22T09:49:22.512Z,44.56
2017-11-22T09:50:22.506Z,44.65
2017-11-22T09:51:22.511Z,44.75
2017-11-22T09:52:22.514Z,44.95
2017-11-22T09:53:22.506Z,44.46
2017-11-22T09:54:22.524Z,44.46
2017-11-22T09:55:22.513Z,44.56
2017-11-22T09:56:22.514Z,44.27
2017-11-22T09:57:22.513Z,44.37
2017-11-22T09:58:22.515Z,44.54
2017-11-22T09:59:22.514Z,44.44
2017-11-22T10:00:22.514Z,44.44
2017-11-22T10:01:22.516Z,44.83
2017-11-22T10:02:22.517Z,44.64
2017-11-22T10:03:22.511Z,44.71
2017-11-22T10:04:22.517Z,44.71
2017-11-22T10:05:22.511Z,44.51
2017-11-22T10:06:22.511Z,44.61
2017-11-22T10:07:22.510Z,44.32
2017-11-22T10:08:22.509Z,44.32
2017-11-22T10:09:22.511Z,44.23
2017-11-22T10:10:22.523Z,44.32
2017-11-22T10:11:22.508Z,44.13
2017-11-22T10:12:22.506Z,43.93
2017-11-22T10:13:22.508Z,43.84
2017-11-22T10:14:22.505Z,44.03
2017-11-22T10:15:22.507Z,44.01
2017-11-22T10:16:22.508Z,44.30
2017-11-22T10:17:22.501Z,44.40
2017-11-22T10:18:22.499Z,44.30
2017-11-22T10:19:22.495Z,44.49
2017-11-22T10:20:22.496Z,44.49
2017-11-22T10:21:22.492Z,44.20
2017-11-22T10:22:22.490Z,44.20
2017-11-22T10:23:22.489Z,44.20
2017-11-22T10:24:22.495Z,44.20
2017-11-22T10:25:22.484Z,44.10
2017-11-22T10:26:22.486Z,44.49
2017-11-22T10:27:22.476Z,44.27
2017-11-22T10:28:22.473Z,44.57
2017-11-22T10:29:22.472Z,44.76
2017-11-22T10:30:22.468Z,44.78
2017-11-22T10:31:22.468Z,44.27
2017-11-22T10:32:22.463Z,44.57
2017-11-22T10:33:22.457Z,44.76
2017-11-22T10:34:22.453Z,45.05
2017-11-22T10:35:22.451Z,45.05
2017-11-22T10:36:22.449Z,44.96
2017-11-22T10:37:22.442Z,44.67
2017-11-22T10:38:22.441Z,44.74
2017-11-22T10:39:22.440Z,45.13
2017-11-22T10:40:22.439Z,45.03
2017-11-22T10:41:22.428Z,45.22
2017-11-22T10:42:22.429Z,45.22
2017-11-22T10:43:22.426Z,45.13
2017-11-22T10:44:22.419Z,44.93
2017-11-22T10:45:22.413Z,45.13
2017-11-22T10:46:22.408Z,45.13
2017-11-22T10:47:22.401Z,45.10
2017-11-22T10:48:22.407Z,45.13
2017-11-22T10:49:22.401Z,45.32
2017-11-22T10:50:22.392Z,45.30
2017-11-22T10:51:22.412Z,45.10
2017-11-22T10:52:22.384Z,45.78
2017-11-22T10:53:22.375Z,45.98
2017-11-22T10:54:22.374Z,45.98
2017-11-22T10:55:22.368Z,45.88
2017-11-22T10:56:22.364Z,45.88
2017-11-22T10:57:22.358Z,45.88
2017-11-22T10:58:22.354Z,45.78
2017-11-22T10:59:22.351Z,45.49
2017-11-22T11:00:22.344Z,46.26
2017-11-22T11:01:22.346Z,46.26
2017-11-22T11:02:22.342Z,46.46
2017-11-22T11:03:22.332Z,46.17
2017-11-22T11:04:22.326Z,45.88
2017-11-22T11:05:22.321Z,46.08
2017-11-22T11:06:22.319Z,46.17
2017-11-22T11:07:22.315Z,46.08
2017-11-22T11:08:22.306Z,46.17
2017-11-22T11:09:22.298Z,46.05
2017-11-22T11:10:22.302Z,46.25
2017-11-22T11:11:22.296Z,45.95
2017-11-22T11:12:22.288Z,45.86
2017-11-22T11:13:22.281Z,46.05
2017-11-22T11:14:22.277Z,46.34
2017-11-22T11:15:22.270Z,46.25
2017-11-22T11:16:22.269Z,46.63
2017-11-22T11:17:22.260Z,46.63
2017-11-22T11:18:22.259Z,46.63
2017-11-22T11:19:22.261Z,46.25
2017-11-22T11:20:22.250Z,46.44
2017-11-22T11:21:22.242Z,46.80
2017-11-22T11:22:22.239Z,46.70
2017-11-22T11:23:22.230Z,46.80
2017-11-22T11:24:22.228Z,46.80
2017-11-22T11:25:22.219Z,46.42
2017-11-22T11:26:22.215Z,46.51
2017-11-22T11:27:22.209Z,47.09
2017-11-22T11:28:22.204Z,46.80
2017-11-22T11:29:22.201Z,47.09
2017-11-22T11:30:22.191Z,47.28
2017-11-22T11:31:22.189Z,47.19
2017-11-22T11:32:22.190Z,47.09
2017-11-22T11:33:22.177Z,47.09
2017-11-22T11:34:22.172Z,47.48
2017-11-22T11:35:22.166Z,46.90
2017-11-22T11:36:22.170Z,47.48
2017-11-22T11:37:22.153Z,47.48
2017-11-22T11:38:22.150Z,47.38
2017-11-22T11:39:22.145Z,47.38
2017-11-22T11:40:22.145Z,47.58
2017-11-22T11:41:22.133Z,47.28
2017-11-22T11:42:22.126Z,47.38
2017-11-22T11:43:22.122Z,47.38
2017-11-22T11:44:22.117Z,47.38
2017-11-22T11:45:22.108Z,47.55
2017-11-22T11:46:22.113Z,47.26
2017-11-22T11:47:22.099Z,48.03
2017-11-22T11:48:22.098Z,48.06
2017-11-22T11:49:22.089Z,47.74
2017-11-22T11:50:22.083Z,47.65
2017-11-22T11:51:22.077Z,47.74
2017-11-22T11:52:22.069Z,47.65
2017-11-22T11:53:22.065Z,47.74
2017-11-22T11:54:22.058Z,47.65
2017-11-22T11:55:22.055Z,47.65
2017-11-22T11:56:22.063Z,47.65
2017-11-22T11:57:22.043Z,47.45
2017-11-22T11:58:22.037Z,47.65
2017-11-22T11:59:22.034Z,47.65
2017-11-22T12:00:22.029Z,47.84
2017-11-22T12:01:22.018Z,47.65
2017-11-22T12:02:22.012Z,47.65
2017-11-22T12:03:22.007Z,47.74
2017-11-22T12:04:22.007Z,47.74
2017-11-22T12:05:22.005Z,48.03
2017-11-22T12:06:21.991Z,48.42
2017-11-22T12:07:21.985Z,48.42
2017-11-22T12:08:21.987Z,48.13
2017-11-22T12:09:21.973Z,48.32
2017-11-22T12:10:21.968Z,48.32
2017-11-22T12:11:21.967Z,48.13
2017-11-22T12:12:21.956Z,48.03
2017-11-22T12:13:21.951Z,48.52
2017-11-22T12:14:21.949Z,48.13
2017-11-22T12:15:21.940Z,48.13
2017-11-22T12:16:21.934Z,48.13
2017-11-22T12:17:21.927Z,47.94
2017-11-22T12:18:21.919Z,47.84
2017-11-22T12:19:21.916Z,48.03
2017-11-22T12:20:21.910Z,48.42
2017-11-22T12:21:21.914Z,48.71
2017-11-22T12:22:21.899Z,48.61
2017-11-22T12:23:21.893Z,48.81
2017-11-22T12:24:21.886Z,48.81
2017-11-22T12:25:21.887Z,48.81
2017-11-22T12:26:21.873Z,48.81
2017-11-22T12:27:21.868Z,48.13
2017-11-22T12:28:21.865Z,48.42
2017-11-22T12:29:21.859Z,48.32
2017-11-22T12:30:21.852Z,47.94
2017-11-22T12:31:21.845Z,48.03
2017-11-22T12:32:21.839Z,48.52
2017-11-22T12:33:21.839Z,48.52
2017-11-22T12:34:21.828Z,48.81
2017-11-22T12:35:21.821Z,48.71
2017-11-22T12:36:21.819Z,48.61
2017-11-22T12:37:21.813Z,48.61
2017-11-22T12:38:21.809Z,48.42
2017-11-22T12:39:21.797Z,48.42
2017-11-22T12:40:21.792Z,48.61
2017-11-22T12:41:21.792Z,48.32
2017-11-22T12:42:21.780Z,48.23
2017-11-22T12:43:21.777Z,48.32
2017-11-22T12:44:21.769Z,48.52
2017-11-22T12:45:21.769Z,48.61
2017-11-22T12:46:21.757Z,48.42
2017-11-22T12:47:21.759Z,48.49
2017-11-22T12:48:21.743Z,48.61
2017-11-22T12:49:21.741Z,48.69
2017-11-22T12:50:21.732Z,48.79
2017-11-22T12:51:21.727Z,48.79
2017-11-22T12:52:21.726Z,48.79
2017-11-22T12:53:21.718Z,48.79
2017-11-22T12:54:21.708Z,48.97
2017-11-22T12:55:21.703Z,49.37
2017-11-22T12:56:21.706Z,49.27
2017-11-22T12:57:21.692Z,49.17
2017-11-22T12:58:21.688Z,49.17
2017-11-22T12:59:21.682Z,49.27
2017-11-22T13:00:21.684Z,48.97
2017-11-22T13:01:21.672Z,48.97
2017-11-22T13:02:21.662Z,48.88
2017-11-22T13:03:21.658Z,49.27
2017-11-22T13:04:21.649Z,49.27
2017-11-22T13:05:21.670Z,49.07
2017-11-22T13:06:21.636Z,49.55
2017-11-22T13:07:21.628Z,49.37
2017-11-22T13:08:21.626Z,49.55
2017-11-22T13:09:21.618Z,49.27
2017-11-22T13:10:21.612Z,49.37
2017-11-22T13:11:21.599Z,49.37
2017-11-22T13:12:21.602Z,49.46
2017-11-22T13:13:21.591Z,49.65
2017-11-22T13:14:21.588Z,49.75
2017-11-22T13:15:21.601Z,49.46
2017-11-22T13:16:21.584Z,49.65
2017-11-22T13:17:21.569Z,50.04
2017-11-22T13:18:21.559Z,50.04
2017-11-22T13:19:21.555Z,49.95